createdAt,value
2022-10-17T00:29:05.977Z,1008.09
2022-10-17T00:29:46.232Z,1008.1
2022-10-17T00:30:26.714Z,1008.07
2022-10-17T00:31:07.183Z,1008.09
2022-10-17T00:31:47.691Z,1008.1
2022-10-17T00:32:28.420Z,1008.09
2022-10-17T00:33:08.608Z,1008.12
2022-10-17T00:33:49.078Z,1008.11
2022-10-17T00:34:29.584Z,1008.08
2022-10-17T00:35:10.039Z,1008.1
2022-10-17T00:35:50.506Z,1008.09
2022-10-17T00:36:30.950Z,1008.12
2022-10-17T00:37:11.410Z,1008.08
2022-10-17T00:37:51.894Z,1008.13
2022-10-17T00:38:32.378Z,1008.1
2022-10-17T00:39:12.929Z,1008.07
2022-10-17T00:39:53.367Z,1008.12
2022-10-17T00:40:33.885Z,1008.13
2022-10-17T00:41:14.421Z,1008.14
2022-10-17T00:41:54.930Z,1008.14
2022-10-17T00:42:35.384Z,1008.15
2022-10-17T00:43:15.883Z,1008.16
2022-10-17T00:43:56.379Z,1008.21
2022-10-17T00:44:36.861Z,1008.12
2022-10-17T00:45:17.323Z,1008.17
2022-10-17T00:45:57.803Z,1008.09
2022-10-17T00:46:38.257Z,1008.1
2022-10-17T00:47:18.792Z,1008.1
2022-10-17T00:47:59.340Z,1008.11
2022-10-17T00:48:39.783Z,1008.08
2022-10-17T00:49:20.257Z,1008.12
2022-10-17T00:50:41.234Z,1008.13
2022-10-17T00:51:21.726Z,1008.12
2022-10-17T00:52:02.289Z,1008.12
2022-10-17T00:52:42.760Z,1008.16
2022-10-17T00:53:23.221Z,1008.12
2022-10-17T00:54:03.717Z,1008.12
2022-10-17T00:54:44.205Z,1008.12
2022-10-17T00:55:24.701Z,1008.16
2022-10-17T00:56:05.155Z,1008.12
2022-10-17T00:56:45.708Z,1008.15
2022-10-17T00:57:26.853Z,1008.16
2022-10-17T00:58:06.674Z,1008.18
2022-10-17T00:58:47.222Z,1008.22
2022-10-17T00:59:27.749Z,1008.23
2022-10-17T01:00:08.283Z,1008.22
2022-10-17T01:01:29.301Z,1008.23
2022-10-17T01:02:09.735Z,1008.24
2022-10-17T01:02:50.226Z,1008.27
2022-10-17T01:03:30.728Z,1008.25
2022-10-17T01:04:11.270Z,1008.21
2022-10-17T01:04:51.866Z,1008.23
2022-10-17T01:05:32.279Z,1008.23
2022-10-17T01:06:12.775Z,1008.17
2022-10-17T01:06:53.270Z,1008.2
2022-10-17T01:07:36.321Z,1008.19
2022-10-17T01:08:14.279Z,1008.18
2022-10-17T01:08:54.860Z,1008.2
2022-10-17T01:09:35.316Z,1008.26
2022-10-17T01:10:15.855Z,1008.29
2022-10-17T01:10:56.304Z,1008.24
2022-10-17T01:11:36.848Z,1008.28
2022-10-17T01:12:17.316Z,1008.29
2022-10-17T01:12:57.814Z,1008.22
2022-10-17T01:14:18.841Z,1008.22
2022-10-17T01:14:59.325Z,1008.24
2022-10-17T01:15:39.775Z,1008.21
2022-10-17T01:17:00.751Z,1008.21
2022-10-17T01:17:41.278Z,1008.2
2022-10-17T01:18:21.734Z,1008.18
2022-10-17T01:19:02.281Z,1008.13
2022-10-17T01:19:42.774Z,1008.16
2022-10-17T01:20:23.253Z,1008.14
2022-10-17T01:21:03.731Z,1008.19
2022-10-17T01:22:24.932Z,1008.17
2022-10-17T01:23:05.253Z,1008.15
2022-10-17T01:23:45.756Z,1008.14
2022-10-17T01:24:26.287Z,1008.19
2022-10-17T01:25:06.840Z,1008.15
2022-10-17T01:25:47.876Z,1008.16
2022-10-17T01:26:27.868Z,1008.15
2022-10-17T01:27:08.310Z,1008.14
2022-10-17T01:27:48.844Z,1008.14
2022-10-17T01:28:29.329Z,1008.15
2022-10-17T01:29:09.752Z,1008.15
2022-10-17T01:29:50.321Z,1008.15
2022-10-17T01:30:30.903Z,1008.16
2022-10-17T01:31:11.424Z,1008.17
2022-10-17T01:31:51.966Z,1008.24
2022-10-17T01:32:32.380Z,1008.2
2022-10-17T01:33:12.867Z,1008.18
2022-10-17T01:33:53.351Z,1008.15
2022-10-17T01:34:33.885Z,1008.14
2022-10-17T01:35:14.421Z,1008.12
2022-10-17T01:35:54.896Z,1008.13
2022-10-17T01:36:35.390Z,1008.15
2022-10-17T01:37:15.923Z,1008.14
2022-10-17T01:37:56.419Z,1008.07
2022-10-17T01:38:36.913Z,1008.09
2022-10-17T01:39:17.349Z,1008.05
2022-10-17T01:39:57.846Z,1007.98
2022-10-17T01:40:38.307Z,1007.99
2022-10-17T01:41:18.761Z,1008.01
2022-10-17T01:41:59.286Z,1007.98
2022-10-17T01:42:39.804Z,1008
2022-10-17T01:43:20.299Z,1008.04
2022-10-17T01:44:00.832Z,1008.04
2022-10-17T01:44:41.312Z,1008.04
2022-10-17T01:45:21.863Z,1008.05
2022-10-17T01:48:20.713Z,1008.04
2022-10-17T01:49:02.359Z,1008.02
2022-10-17T01:49:42.813Z,1008.03
2022-10-17T01:50:23.289Z,1008.04
2022-10-17T01:51:44.296Z,1007.97
2022-10-17T01:52:24.768Z,1007.94
2022-10-17T01:53:05.239Z,1007.97
2022-10-17T01:53:45.728Z,1008.01
2022-10-17T01:54:26.209Z,1007.99
2022-10-17T01:55:06.753Z,1007.99
2022-10-17T01:55:47.282Z,1008
2022-10-17T01:56:27.658Z,1008
2022-10-17T01:57:08.135Z,1007.99
2022-10-17T01:57:48.634Z,1007.99
2022-10-17T01:58:29.136Z,1007.98
2022-10-17T01:59:09.709Z,1008
2022-10-17T01:59:50.195Z,1007.98
2022-10-17T02:00:30.714Z,1007.98
2022-10-17T02:01:11.288Z,1007.98
2022-10-17T02:01:51.765Z,1007.98
2022-10-17T02:02:32.190Z,1008.03
2022-10-17T02:03:12.668Z,1008.02
2022-10-17T02:04:33.707Z,1007.98
2022-10-17T02:05:14.203Z,1007.99
2022-10-17T02:05:54.648Z,1008
2022-10-17T02:06:35.210Z,1007.96
2022-10-17T02:07:15.696Z,1007.99
2022-10-17T02:07:56.230Z,1007.96
2022-10-17T02:08:36.740Z,1007.97
2022-10-17T02:09:17.223Z,1007.96
2022-10-17T02:09:57.813Z,1007.94
2022-10-17T02:10:38.309Z,1007.95
2022-10-17T02:11:59.370Z,1007.93
2022-10-17T02:12:39.924Z,1007.98
2022-10-17T02:13:20.400Z,1007.98
2022-10-17T02:14:01.053Z,1007.98
2022-10-17T02:14:41.394Z,1007.97
2022-10-17T02:15:21.932Z,1007.98
2022-10-17T02:16:02.405Z,1007.92
2022-10-17T02:17:23.471Z,1007.93
2022-10-17T02:18:03.952Z,1007.89
2022-10-17T02:18:44.398Z,1007.86
2022-10-17T02:20:05.574Z,1007.94
2022-10-17T02:20:46.069Z,1007.92
2022-10-17T02:21:26.547Z,1007.92
2022-10-17T02:22:07.075Z,1007.94
2022-10-17T02:22:47.592Z,1007.99
2022-10-17T02:23:28.087Z,1007.95
2022-10-17T02:24:08.617Z,1007.94
2022-10-17T02:25:29.594Z,1007.94
2022-10-17T02:26:10.157Z,1007.93
2022-10-17T02:26:50.687Z,1007.94
2022-10-17T02:27:31.263Z,1007.93
2022-10-17T02:28:11.590Z,1007.93
2022-10-17T02:28:52.165Z,1007.95
2022-10-17T02:29:32.628Z,1007.93
2022-10-17T02:30:13.134Z,1007.97
2022-10-17T02:30:53.708Z,1007.96
2022-10-17T02:31:34.122Z,1007.93
2022-10-17T02:32:14.625Z,1007.93
2022-10-17T02:32:55.091Z,1007.96
2022-10-17T02:33:35.583Z,1007.91
2022-10-17T02:34:16.079Z,1007.9
2022-10-17T02:34:56.608Z,1007.97
2022-10-17T02:35:37.044Z,1007.9
2022-10-17T02:36:17.570Z,1007.92
2022-10-17T02:36:58.093Z,1007.89
2022-10-17T02:37:38.616Z,1007.91
2022-10-17T02:38:19.185Z,1007.93
2022-10-17T02:38:59.692Z,1007.95
2022-10-17T02:39:40.161Z,1008
2022-10-17T02:40:20.666Z,1007.94
2022-10-17T02:41:01.202Z,1007.94
2022-10-17T02:41:41.676Z,1007.95
2022-10-17T02:42:22.156Z,1008.02
2022-10-17T02:43:02.762Z,1007.89
2022-10-17T02:43:43.333Z,1007.98
2022-10-17T02:44:23.825Z,1007.97
2022-10-17T02:45:04.339Z,1007.88
2022-10-17T02:45:44.885Z,1007.9
2022-10-17T02:46:25.317Z,1007.88
2022-10-17T02:47:05.875Z,1007.89
2022-10-17T02:47:46.350Z,1007.91
2022-10-17T02:48:26.912Z,1007.86
2022-10-17T02:49:07.544Z,1007.83
2022-10-17T02:49:48.024Z,1007.89
2022-10-17T02:51:09.029Z,1007.85
2022-10-17T02:51:50.465Z,1007.84
2022-10-17T02:52:31.305Z,1007.87
2022-10-17T02:53:11.552Z,1007.78
2022-10-17T02:53:52.002Z,1007.76
2022-10-17T02:54:32.522Z,1007.78
2022-10-17T02:55:12.951Z,1007.77
2022-10-17T02:55:53.520Z,1007.81
2022-10-17T02:56:33.947Z,1007.81
2022-10-17T02:57:14.465Z,1007.77
2022-10-17T02:58:35.452Z,1007.77
2022-10-17T02:59:15.867Z,1007.84
2022-10-17T02:59:56.389Z,1007.75
2022-10-17T03:00:36.807Z,1007.81
2022-10-17T03:01:17.305Z,1007.8
2022-10-17T03:01:57.811Z,1007.83
2022-10-17T03:02:38.444Z,1007.8
2022-10-17T03:03:18.979Z,1007.8
2022-10-17T03:03:59.464Z,1007.79
2022-10-17T03:04:39.967Z,1007.81
2022-10-17T03:05:20.440Z,1007.83
2022-10-17T03:06:01.014Z,1007.83
2022-10-17T03:06:41.453Z,1007.78
2022-10-17T03:07:21.915Z,1007.83
2022-10-17T03:08:42.839Z,1007.81
2022-10-17T03:09:23.332Z,1007.82
2022-10-17T03:10:03.862Z,1007.8
2022-10-17T03:10:44.311Z,1007.81
2022-10-17T03:11:24.790Z,1007.8
2022-10-17T03:12:05.354Z,1007.81
2022-10-17T03:12:45.848Z,1007.81
2022-10-17T03:13:26.333Z,1007.79
2022-10-17T03:14:06.834Z,1007.8
2022-10-17T03:14:47.320Z,1007.82
2022-10-17T03:16:08.320Z,1007.88
2022-10-17T03:16:48.784Z,1007.88
2022-10-17T03:17:29.244Z,1007.86
2022-10-17T03:18:09.792Z,1007.88
2022-10-17T03:18:50.385Z,1007.83
2022-10-17T03:19:30.787Z,1007.85
2022-10-17T03:20:11.332Z,1007.9
2022-10-17T03:20:51.772Z,1007.87
2022-10-17T03:21:32.270Z,1007.83
2022-10-17T03:22:12.698Z,1007.9
2022-10-17T03:22:53.227Z,1007.91
2022-10-17T03:23:33.671Z,1007.93
2022-10-17T03:24:14.130Z,1007.92
2022-10-17T03:24:54.627Z,1007.91
2022-10-17T03:26:15.670Z,1007.97
2022-10-17T03:26:56.135Z,1007.97
2022-10-17T03:27:36.579Z,1007.97
2022-10-17T03:28:17.034Z,1007.98
2022-10-17T03:28:57.575Z,1007.94
2022-10-17T03:29:38.048Z,1007.99
2022-10-17T03:30:18.582Z,1007.98
2022-10-17T03:30:59.067Z,1008.01
2022-10-17T03:31:39.588Z,1008
2022-10-17T03:32:20.019Z,1008.08
2022-10-17T03:33:41.000Z,1008.05
2022-10-17T03:34:21.482Z,1008.08
2022-10-17T03:35:01.985Z,1008.06
2022-10-17T03:35:42.502Z,1008.07
2022-10-17T03:36:23.012Z,1008.1
2022-10-17T03:37:03.475Z,1008.08
2022-10-17T03:37:43.935Z,1008.09
2022-10-17T03:38:24.781Z,1008.06
2022-10-17T03:39:05.241Z,1008.08
2022-10-17T03:39:45.744Z,1008.02
2022-10-17T03:41:06.705Z,1008.05
2022-10-17T03:41:47.167Z,1008.04
2022-10-17T03:42:27.620Z,1008.06
2022-10-17T03:43:08.116Z,1008.06
2022-10-17T03:43:48.627Z,1008.06
2022-10-17T03:44:29.095Z,1008.11
2022-10-17T03:45:09.623Z,1008.14
2022-10-17T03:45:50.102Z,1008.1
2022-10-17T03:46:30.618Z,1008.09
2022-10-17T03:47:11.967Z,1008.09
2022-10-17T03:47:51.697Z,1008.14
2022-10-17T03:48:32.169Z,1008.15
2022-10-17T03:49:12.677Z,1008.14
2022-10-17T03:49:53.159Z,1008.12
2022-10-17T03:50:33.747Z,1008.07
2022-10-17T03:51:14.202Z,1008.07
2022-10-17T03:51:54.666Z,1008.1
2022-10-17T03:52:35.253Z,1008.16
2022-10-17T03:53:15.742Z,1008.04
2022-10-17T03:53:56.309Z,1008.1
2022-10-17T03:54:36.852Z,1008.1
2022-10-17T03:55:17.268Z,1008.11
2022-10-17T03:55:57.779Z,1008.1
2022-10-17T03:56:38.309Z,1008.13
2022-10-17T03:57:18.892Z,1008.15
2022-10-17T03:57:59.308Z,1008.12
2022-10-17T03:58:39.843Z,1008.12
2022-10-17T03:59:20.298Z,1008.14
2022-10-17T04:00:00.812Z,1008.15
2022-10-17T04:00:41.352Z,1008.14
2022-10-17T04:01:21.960Z,1008.18
2022-10-17T04:02:02.476Z,1008.13
2022-10-17T04:02:42.921Z,1008.17
2022-10-17T04:03:23.460Z,1008.13
2022-10-17T04:04:03.928Z,1008.17
2022-10-17T04:04:44.405Z,1008.2
2022-10-17T04:05:24.895Z,1008.15
2022-10-17T04:06:05.371Z,1008.12
2022-10-17T04:06:45.881Z,1008.15
2022-10-17T04:08:07.131Z,1008.12
2022-10-17T04:08:47.562Z,1008.12
2022-10-17T04:09:28.104Z,1008.13
2022-10-17T04:12:27.289Z,1008.16
2022-10-17T04:13:07.295Z,1008.12
2022-10-17T04:13:47.795Z,1008.13
2022-10-17T04:14:28.262Z,1008.13
2022-10-17T04:15:08.713Z,1008.16
2022-10-17T04:15:49.202Z,1008.2
2022-10-17T04:16:29.700Z,1008.2
2022-10-17T04:17:10.276Z,1008.18
2022-10-17T04:17:50.636Z,1008.23
2022-10-17T04:18:31.338Z,1008.23
2022-10-17T04:19:11.715Z,1008.23
2022-10-17T04:19:52.354Z,1008.3
2022-10-17T04:21:13.255Z,1008.24
2022-10-17T04:21:53.818Z,1008.25
2022-10-17T04:22:34.262Z,1008.23
2022-10-17T04:23:14.710Z,1008.23
2022-10-17T04:23:55.237Z,1008.25
2022-10-17T04:24:35.807Z,1008.25
2022-10-17T04:25:16.258Z,1008.26
2022-10-17T04:25:56.741Z,1008.28
2022-10-17T04:26:37.258Z,1008.27
2022-10-17T04:27:17.794Z,1008.29
2022-10-17T04:27:58.344Z,1008.31
2022-10-17T04:29:19.326Z,1008.31
2022-10-17T04:29:59.779Z,1008.33
2022-10-17T04:31:20.768Z,1008.28
2022-10-17T04:32:01.246Z,1008.3
2022-10-17T04:32:41.793Z,1008.27
2022-10-17T04:33:22.345Z,1008.26
2022-10-17T04:34:02.809Z,1008.24
2022-10-17T04:34:43.340Z,1008.23
2022-10-17T04:35:24.017Z,1008.23
2022-10-17T04:36:04.528Z,1008.22
2022-10-17T04:36:44.982Z,1008.25
2022-10-17T04:37:25.425Z,1008.26
2022-10-17T04:38:05.954Z,1008.21
2022-10-17T04:38:46.395Z,1008.2
2022-10-17T04:39:26.846Z,1008.24
2022-10-17T04:40:07.432Z,1008.24
2022-10-17T04:41:28.384Z,1008.23
2022-10-17T04:42:08.856Z,1008.25
2022-10-17T04:42:49.421Z,1008.24
2022-10-17T04:43:29.910Z,1008.23
2022-10-17T04:44:10.419Z,1008.27
2022-10-17T04:44:50.875Z,1008.29
2022-10-17T04:45:31.365Z,1008.31
2022-10-17T04:46:11.866Z,1008.3
2022-10-17T04:46:52.376Z,1008.31
2022-10-17T04:47:32.941Z,1008.28
2022-10-17T04:48:13.346Z,1008.3
2022-10-17T04:48:53.865Z,1008.26
2022-10-17T04:49:34.358Z,1008.29
2022-10-17T04:50:14.873Z,1008.29
2022-10-17T04:50:55.343Z,1008.27
2022-10-17T04:51:35.843Z,1008.27
2022-10-17T04:53:34.099Z,1008.3
2022-10-17T04:54:14.784Z,1008.29
2022-10-17T04:54:55.261Z,1008.31
2022-10-17T04:55:35.794Z,1008.28
2022-10-17T04:56:16.284Z,1008.25
2022-10-17T04:56:56.799Z,1008.2
2022-10-17T04:57:37.283Z,1008.26
2022-10-17T04:58:17.690Z,1008.31
2022-10-17T04:58:58.269Z,1008.28
2022-10-17T04:59:38.695Z,1008.29
2022-10-17T05:00:19.287Z,1008.35
2022-10-17T05:00:59.815Z,1008.36
2022-10-17T05:01:40.265Z,1008.38
2022-10-17T05:02:20.778Z,1008.35
2022-10-17T05:03:01.236Z,1008.34
2022-10-17T05:03:41.769Z,1008.35
2022-10-17T05:04:23.894Z,1008.43
2022-10-17T05:05:02.841Z,1008.44
2022-10-17T05:05:43.318Z,1008.37
2022-10-17T05:06:23.818Z,1008.39
2022-10-17T05:07:04.350Z,1008.46
2022-10-17T05:07:44.806Z,1008.4
2022-10-17T05:08:25.354Z,1008.38
2022-10-17T05:09:05.858Z,1008.46
2022-10-17T05:09:46.390Z,1008.36
2022-10-17T05:10:26.777Z,1008.38
2022-10-17T05:11:07.306Z,1008.35
2022-10-17T05:11:47.880Z,1008.45
2022-10-17T05:12:28.452Z,1008.41
2022-10-17T05:13:08.803Z,1008.44
2022-10-17T05:13:49.344Z,1008.4
2022-10-17T05:14:29.798Z,1008.41
2022-10-17T05:15:10.371Z,1008.42
2022-10-17T05:15:50.982Z,1008.41
2022-10-17T05:16:31.478Z,1008.46
2022-10-17T05:17:12.063Z,1008.41
2022-10-17T05:17:52.569Z,1008.44
2022-10-17T05:18:33.181Z,1008.44
2022-10-17T05:19:13.816Z,1008.47
2022-10-17T05:19:54.522Z,1008.48
2022-10-17T05:20:35.705Z,1008.47
2022-10-17T05:21:16.239Z,1008.47
2022-10-17T05:21:56.721Z,1008.47
2022-10-17T05:22:38.377Z,1008.49
2022-10-17T05:23:18.589Z,1008.5
2022-10-17T05:23:59.239Z,1008.52
2022-10-17T05:24:39.686Z,1008.5
2022-10-17T05:25:20.264Z,1008.54
2022-10-17T05:26:00.808Z,1008.53
2022-10-17T05:26:41.307Z,1008.51
2022-10-17T05:27:21.770Z,1008.53
2022-10-17T05:28:02.328Z,1008.52
2022-10-17T05:28:42.934Z,1008.5
2022-10-17T05:29:23.479Z,1008.5
2022-10-17T05:30:04.084Z,1008.51
2022-10-17T05:30:44.574Z,1008.49
2022-10-17T05:31:25.019Z,1008.51
2022-10-17T05:32:05.516Z,1008.5
2022-10-17T05:32:45.995Z,1008.52
2022-10-17T05:33:26.536Z,1008.52
2022-10-17T05:34:47.560Z,1008.58
2022-10-17T05:35:28.140Z,1008.62
2022-10-17T05:36:08.759Z,1008.58
2022-10-17T05:36:49.295Z,1008.57
2022-10-17T05:37:29.749Z,1008.63
2022-10-17T05:38:10.309Z,1008.59
2022-10-17T05:38:50.848Z,1008.58
2022-10-17T05:39:31.278Z,1008.62
2022-10-17T05:40:11.875Z,1008.56
2022-10-17T05:40:52.401Z,1008.59
2022-10-17T05:41:32.888Z,1008.54
2022-10-17T05:42:13.414Z,1008.55
2022-10-17T05:42:53.905Z,1008.64
2022-10-17T05:43:35.121Z,1008.59
2022-10-17T05:44:16.517Z,1008.58
2022-10-17T05:44:56.608Z,1008.54
2022-10-17T05:45:37.179Z,1008.54
2022-10-17T05:46:17.704Z,1008.52
2022-10-17T05:47:38.635Z,1008.54
2022-10-17T05:48:19.182Z,1008.51
2022-10-17T05:48:59.708Z,1008.55
2022-10-17T05:50:20.712Z,1008.54
2022-10-17T05:51:01.348Z,1008.55
2022-10-17T05:51:41.812Z,1008.56
2022-10-17T05:52:22.343Z,1008.55
2022-10-17T06:31:45.240Z,1008.97
2022-10-17T06:32:28.778Z,1009
2022-10-17T06:33:11.200Z,1008.95
2022-10-17T06:33:55.863Z,1008.93
2022-10-17T06:34:39.588Z,1009.03
2022-10-17T06:37:02.159Z,1009.01
2022-10-17T06:37:43.660Z,1009.04
2022-10-17T06:38:24.495Z,1009.04
2022-10-17T06:39:05.073Z,1009.06
2022-10-17T06:39:45.590Z,1009.08
2022-10-17T06:40:26.327Z,1009.06
2022-10-17T06:41:06.743Z,1009.05
2022-10-17T06:41:47.276Z,1009.04
2022-10-17T06:42:28.024Z,1009.03
2022-10-17T06:43:08.622Z,1009.05
2022-10-17T06:43:49.755Z,1009.01
2022-10-17T06:44:30.262Z,1009.08
2022-10-17T06:45:10.811Z,1009.01
2022-10-17T06:45:51.329Z,1009.04
2022-10-17T06:46:31.894Z,1009.04
2022-10-17T06:47:15.409Z,1009.1
2022-10-17T06:47:54.881Z,1009.13
2022-10-17T06:48:35.510Z,1009.16
2022-10-17T06:49:16.130Z,1009.13
2022-10-17T06:49:56.635Z,1009.19
2022-10-17T06:55:29.797Z,1009.36
2022-10-17T06:56:15.294Z,1009.33
2022-10-17T06:56:55.373Z,1009.34
2022-10-17T06:57:35.982Z,1009.33
2022-10-17T06:58:16.632Z,1009.4
2022-10-17T06:58:57.456Z,1009.47
2022-10-17T06:59:38.033Z,1009.42
2022-10-17T07:03:11.566Z,1009.38
2022-10-17T07:08:16.312Z,1009.36
2022-10-17T07:09:04.153Z,1009.4
2022-10-17T07:09:52.157Z,1009.36
2022-10-17T07:10:39.046Z,1009.4
2022-10-17T07:11:18.578Z,1009.39
2022-10-17T07:11:59.330Z,1009.41
2022-10-17T07:12:40.786Z,1009.35
2022-10-17T07:13:21.354Z,1009.38
2022-10-17T07:14:01.930Z,1009.39
2022-10-17T07:14:42.559Z,1009.37
2022-10-17T07:15:22.994Z,1009.35
2022-10-17T07:16:03.665Z,1009.34
2022-10-17T07:16:44.128Z,1009.27
2022-10-17T07:17:24.860Z,1009.26
2022-10-17T07:18:05.353Z,1009.27
2022-10-17T07:19:26.530Z,1009.21
2022-10-17T07:20:06.982Z,1009.28
2022-10-17T07:20:47.614Z,1009.28
2022-10-17T07:21:28.072Z,1009.29
2022-10-17T07:22:08.611Z,1009.29
2022-10-17T07:22:49.235Z,1009.31
2022-10-17T07:23:29.803Z,1009.29
2022-10-17T07:24:10.360Z,1009.26
2022-10-17T07:24:50.851Z,1009.29
2022-10-17T07:25:31.959Z,1009.27
2022-10-17T07:26:11.964Z,1009.35
2022-10-17T07:26:52.471Z,1009.36
2022-10-17T07:29:52.969Z,1009.49
2022-10-17T07:30:34.259Z,1009.45
2022-10-17T07:31:14.791Z,1009.48
2022-10-17T07:31:55.390Z,1009.47
2022-10-17T07:33:16.409Z,1009.48
2022-10-17T07:33:57.056Z,1009.52
2022-10-17T07:34:37.582Z,1009.48
2022-10-17T07:35:18.062Z,1009.57
2022-10-17T07:35:58.757Z,1009.52
2022-10-17T07:36:39.376Z,1009.48
2022-10-17T07:37:19.820Z,1009.53
2022-10-17T07:38:00.432Z,1009.48
2022-10-17T07:38:40.879Z,1009.49
2022-10-17T07:39:21.489Z,1009.5
2022-10-17T07:40:02.048Z,1009.48
2022-10-17T07:40:42.656Z,1009.45
2022-10-17T07:41:23.259Z,1009.14
2022-10-17T07:42:03.844Z,1009.54
2022-10-17T07:42:44.315Z,1009.5
2022-10-17T07:43:24.955Z,1009.53
2022-10-17T07:44:06.680Z,1009.56
2022-10-17T07:44:47.481Z,1009.56
2022-10-17T07:45:28.765Z,1009.54
2022-10-17T07:46:09.298Z,1009.56
2022-10-17T07:48:07.231Z,1009.53
2022-10-17T07:48:49.651Z,1009.53
2022-10-17T07:49:30.599Z,1009.53
2022-10-17T07:50:11.271Z,1009.58
2022-10-17T07:50:52.781Z,1009.59
2022-10-17T07:51:36.788Z,1009.6
2022-10-17T07:52:18.151Z,1009.57
2022-10-17T07:53:00.233Z,1009.55
2022-10-17T07:53:41.764Z,1009.58
2022-10-17T07:54:21.299Z,1009.54
2022-10-17T07:55:01.896Z,1009.55
2022-10-17T07:55:42.396Z,1009.59
2022-10-17T07:56:23.051Z,1009.55
2022-10-17T07:57:08.303Z,1009.6
2022-10-17T07:57:48.942Z,1009.6
2022-10-17T07:58:29.702Z,1009.58
2022-10-17T07:59:10.146Z,1009.63
2022-10-17T08:02:24.354Z,1009.7
2022-10-17T08:03:04.729Z,1009.73
2022-10-17T08:03:45.567Z,1009.68
2022-10-17T08:04:26.864Z,1009.7
2022-10-17T08:05:06.802Z,1009.68
2022-10-17T08:05:48.041Z,1009.76
2022-10-17T08:06:28.556Z,1009.91
2022-10-17T08:07:20.837Z,1009.81
2022-10-17T08:07:50.142Z,1009.8
2022-10-17T08:08:30.387Z,1009.76
2022-10-17T08:09:11.773Z,1009.85
2022-10-17T08:09:53.175Z,1009.83
2022-10-17T08:10:33.431Z,1009.83
2022-10-17T08:11:14.361Z,1009.77
2022-10-17T08:11:55.889Z,1009.83
2022-10-17T08:12:36.352Z,1009.83
2022-10-17T08:13:17.894Z,1009.81
2022-10-17T08:13:58.711Z,1009.88
2022-10-17T08:14:39.372Z,1009.86
2022-10-17T08:15:20.053Z,1009.94
2022-10-17T08:16:00.723Z,1009.92
2022-10-17T08:16:41.443Z,1009.91
2022-10-17T08:17:22.206Z,1009.85
2022-10-17T08:18:05.460Z,1009.88
2022-10-17T08:18:46.549Z,1009.88
2022-10-17T08:19:27.205Z,1009.97
2022-10-17T08:20:07.706Z,1009.89
2022-10-17T08:20:48.390Z,1009.95
2022-10-17T08:21:29.808Z,1009.96
2022-10-17T08:22:10.574Z,1010.02
2022-10-17T08:22:51.213Z,1009.9
2022-10-17T08:23:32.111Z,1009.92
2022-10-17T08:24:12.743Z,1009.82
2022-10-17T08:24:53.359Z,1009.82
2022-10-17T08:25:34.177Z,1009.83
2022-10-17T08:26:14.771Z,1009.84
2022-10-17T08:26:55.649Z,1009.94
2022-10-17T08:27:36.294Z,1009.87
2022-10-17T08:28:17.003Z,1009.92
2022-10-17T08:32:37.861Z,1010.03
2022-10-17T08:33:19.080Z,1010.07
2022-10-17T08:33:59.739Z,1010.06
2022-10-17T08:34:40.494Z,1010.04
2022-10-17T08:35:21.258Z,1010.17
2022-10-17T08:36:01.788Z,1010.23
2022-10-17T08:36:42.399Z,1010.18
2022-10-17T08:37:22.879Z,1010.14
2022-10-17T08:38:18.861Z,1010.18
2022-10-17T08:38:57.060Z,1010.24
2022-10-17T08:43:16.262Z,1010.24
2022-10-17T08:43:56.994Z,1010.29
2022-10-17T08:44:37.851Z,1010.29
2022-10-17T08:45:18.308Z,1010.32
2022-10-17T08:46:00.370Z,1010.28
2022-10-17T08:46:40.839Z,1010.34
2022-10-17T08:47:21.595Z,1010.33
2022-10-17T08:48:02.335Z,1010.32
2022-10-17T08:48:45.419Z,1010.34
2022-10-17T08:49:25.160Z,1010.39
2022-10-17T08:50:05.870Z,1010.42
2022-10-17T08:50:50.255Z,1010.41
2022-10-17T08:51:31.653Z,1010.41
2022-10-17T08:52:14.128Z,1010.39
2022-10-17T08:52:57.189Z,1010.28
2022-10-17T08:53:39.313Z,1010.39
2022-10-17T08:54:20.770Z,1010.44
2022-10-17T08:55:11.544Z,1010.37
2022-10-17T08:55:52.521Z,1010.4
2022-10-17T08:57:55.869Z,1010.31
2022-10-17T08:58:37.010Z,1010.35
2022-10-17T08:59:20.691Z,1010.31
2022-10-17T09:09:27.701Z,1010.53
2022-10-17T09:10:08.410Z,1010.57
2022-10-17T09:10:48.916Z,1010.58
2022-10-17T09:11:29.622Z,1010.62
2022-10-17T09:12:10.106Z,1010.71
2022-10-17T09:12:50.817Z,1010.66
2022-10-17T09:13:31.458Z,1010.69
2022-10-17T09:19:18.918Z,1010.59
2022-10-17T09:20:00.027Z,1010.63
2022-10-17T09:20:41.814Z,1010.56
2022-10-17T09:21:23.687Z,1010.62
2022-10-17T09:22:04.458Z,1010.63
2022-10-17T09:22:47.012Z,1010.7
2022-10-17T09:23:27.802Z,1010.7
2022-10-17T09:24:15.348Z,1010.71
2022-10-17T09:24:49.727Z,1010.71
2022-10-17T09:25:31.227Z,1010.71
2022-10-17T09:26:11.932Z,1010.77
2022-10-17T09:26:52.629Z,1010.75
2022-10-17T09:27:34.299Z,1010.7
2022-10-17T09:28:14.915Z,1010.71
2022-10-17T09:28:58.079Z,1010.69
2022-10-17T09:29:43.671Z,1010.7
2022-10-17T09:30:33.388Z,1010.67
2022-10-17T09:31:01.110Z,1010.68
2022-10-17T09:31:41.683Z,1010.7
2022-10-17T09:32:27.357Z,1010.71
2022-10-17T09:35:45.368Z,1010.78
2022-10-17T09:42:55.824Z,1010.79
2022-10-17T09:43:36.466Z,1010.77
2022-10-17T09:44:17.018Z,1010.79
2022-10-17T09:44:57.784Z,1010.81
2022-10-17T09:45:38.500Z,1010.81
2022-10-17T09:46:19.560Z,1010.8
2022-10-17T09:49:36.697Z,1010.84
2022-10-17T09:50:17.365Z,1010.87
2022-10-17T09:51:08.112Z,1010.89
2022-10-17T09:51:39.817Z,1010.88
2022-10-17T09:52:20.401Z,1010.88
2022-10-17T09:53:00.951Z,1010.9
2022-10-17T09:53:41.609Z,1010.86
2022-10-17T09:54:22.187Z,1010.93
2022-10-17T09:55:02.828Z,1010.89
2022-10-17T09:55:43.761Z,1010.9
2022-10-17T09:56:25.354Z,1010.94
2022-10-17T09:57:05.900Z,1010.94
2022-10-17T09:57:46.611Z,1010.96
2022-10-17T09:59:11.557Z,1010.98
2022-10-17T09:59:48.326Z,1011.02
2022-10-17T10:00:29.411Z,1011.02
2022-10-17T10:01:09.969Z,1011.02
2022-10-17T10:01:51.201Z,1011.05
2022-10-17T10:02:31.548Z,1011.05
2022-10-17T10:03:11.872Z,1011.08
2022-10-17T10:03:52.363Z,1011.08
2022-10-17T10:04:41.516Z,1011.11
2022-10-17T10:05:13.630Z,1011.1
2022-10-17T10:05:54.291Z,1011.1
2022-10-17T10:06:34.864Z,1011.08
2022-10-17T10:07:15.442Z,1011.11
2022-10-17T10:07:55.960Z,1011.15
2022-10-17T10:08:36.638Z,1011.14
2022-10-17T10:09:17.273Z,1011.17
2022-10-17T10:09:57.708Z,1011.12
2022-10-17T10:10:38.330Z,1011.14
2022-10-17T10:11:19.012Z,1011.18
2022-10-17T10:11:59.566Z,1011.13
2022-10-17T10:12:40.075Z,1011.08
2022-10-17T10:13:20.681Z,1011.15
2022-10-17T10:14:01.167Z,1011.14
2022-10-17T10:14:44.217Z,1011.15
2022-10-17T10:15:24.044Z,1011.13
2022-10-17T10:16:03.997Z,1011.16
2022-10-17T10:16:44.574Z,1011.18
2022-10-17T10:17:25.106Z,1011.15
2022-10-17T10:18:05.639Z,1011.16
2022-10-17T10:18:46.442Z,1011.13
2022-10-17T10:19:26.652Z,1011.17
2022-10-17T10:20:07.411Z,1011.15
2022-10-17T10:20:47.859Z,1011.19
2022-10-17T10:21:28.561Z,1011.18
2022-10-17T10:22:09.033Z,1011.19
2022-10-17T10:22:49.678Z,1011.19
2022-10-17T10:23:30.390Z,1011.21
2022-10-17T10:24:10.780Z,1011.28
2022-10-17T10:24:51.273Z,1011.25
2022-10-17T10:25:32.203Z,1011.3
2022-10-17T10:26:17.812Z,1011.25
2022-10-17T10:26:54.928Z,1011.3
2022-10-17T10:27:35.716Z,1011.25
2022-10-17T10:30:55.997Z,1011.31
2022-10-17T10:31:36.055Z,1011.38
2022-10-17T10:32:18.070Z,1011.37
2022-10-17T10:32:58.480Z,1011.4
2022-10-17T10:33:41.536Z,1011.44
2022-10-17T10:34:20.381Z,1011.45
2022-10-17T10:35:00.672Z,1011.4
2022-10-17T10:35:41.793Z,1011.43
2022-10-17T10:36:22.760Z,1011.41
2022-10-17T10:37:03.432Z,1011.45
2022-10-17T10:37:46.019Z,1011.5
2022-10-17T10:38:30.412Z,1011.5
2022-10-17T10:39:10.946Z,1011.47
2022-10-17T10:39:51.385Z,1011.52
2022-10-17T10:40:32.193Z,1011.48
2022-10-17T10:41:12.903Z,1011.49
2022-10-17T10:41:53.481Z,1011.51
2022-10-17T10:42:34.895Z,1011.52
2022-10-17T10:43:15.743Z,1011.51
2022-10-17T10:43:56.898Z,1011.5
2022-10-17T10:44:38.151Z,1011.52
2022-10-17T10:45:35.847Z,1011.52